This is the latest recevied weather packets stored in our database for station/object LZ0VRC-10. If no packets are shown the sender has not sent any weather packets the latest 10 day(s).
| Time | Temp. | Humidity | Pressure | Rain* | Wind** | Luminosity | Snow |
|---|---|---|---|---|---|---|---|
| 1777374821 | 25° C | 24% | 1017.9 hPa | - | - | - | - |
| 1777374816 | 25° C | 24% | 1017.9 hPa | - | - | - | - |
| 1777373921 | 25° C | 24% | 1018 hPa | - | - | - | - |
| 1777373916 | 25° C | 24% | 1018 hPa | - | - | - | - |
| 1777373021 | 24.44° C | 24% | 1018.1 hPa | - | - | - | - |
| 1777373016 | 24.44° C | 24% | 1018.1 hPa | - | - | - | - |
| 1777372121 | 23.33° C | 23% | 1018.2 hPa | - | - | - | - |
| 1777372116 | 23.33° C | 23% | 1018.2 hPa | - | - | - | - |
| 1777371216 | 23.89° C | 25% | 1018.4 hPa | - | - | - | - |
| 1777370316 | 23.33° C | 27% | 1018.7 hPa | - | - | - | - |
| 1777369421 | 23.89° C | 27% | 1018.7 hPa | - | - | - | - |
| 1777369416 | 23.89° C | 27% | 1018.7 hPa | - | - | - | - |
| 1777368516 | 25.56° C | 25% | 1018.9 hPa | - | - | - | - |
| 1777367621 | 26.11° C | 24% | 1019 hPa | - | - | - | - |
| 1777367616 | 26.11° C | 24% | 1019 hPa | - | - | - | - |
| 1777366716 | 24.44° C | 25% | 1019.1 hPa | - | - | - | - |
| 1777365816 | 24.44° C | 25% | 1019.2 hPa | - | - | - | - |
| 1777364916 | 24.44° C | 28% | 1019.2 hPa | - | - | - | - |
| 1777364021 | 22.78° C | 30% | 1019.3 hPa | - | - | - | - |
| 1777364016 | 22.78° C | 30% | 1019.3 hPa | - | - | - | - |
| 1777363116 | 21.67° C | 33% | 1019.3 hPa | - | - | - | - |
| 1777362221 | 22.78° C | 32% | 1019.3 hPa | - | - | - | - |
| 1777362216 | 22.78° C | 32% | 1019.3 hPa | - | - | - | - |
| 1777361324 | 20.56° C | 35% | 1019.2 hPa | - | - | - | - |
| 1777361316 | 20.56° C | 35% | 1019.2 hPa | - | - | - | - |
* Rain since midnight (hover to see other rain measurements)
** Current wind speed in m/s (hover to see current wind gust speed)